Time;durP1;ratioP1;P1;durP2;ratioP2;P2;SDS_P1;SDS_P2;PMS_P1;PMS_P2;Temp;Humidity;BMP_temperature;BMP_pressure;BME280_temperature;BME280_humidity;BME280_pressure;Samples;Min_cycle;Max_cycle;Signal;HPM_P1;HPM_P2
2023/07/05 00:00:29;;;;;;;5.75;2.55;;;;;;;;;;5019754;28;20094;-75
2023/07/05 00:02:55;;;;;;;3.42;2.28;;;;;;;;;;5026199;28;20021;-74
2023/07/05 00:05:21;;;;;;;4.38;2.80;;;;;;;;;;5029225;28;20068;-73
2023/07/05 00:07:48;;;;;;;4.13;2.50;;;;;;;;;;5030206;28;20380;-73
2023/07/05 00:10:14;;;;;;;3.42;2.22;;;;;;;;;;5027592;28;20032;-74
2023/07/05 00:12:40;;;;;;;2.90;2.20;;;;;;;;;;5032954;28;20042;-74
2023/07/05 00:15:07;;;;;;;3.22;2.25;;;;;;;;;;5036724;28;20036;-75
2023/07/05 00:17:34;;;;;;;3.17;2.30;;;;;;;;;;5048176;28;20056;-74
2023/07/05 00:20:00;;;;;;;4.78;2.25;;;;;;;;;;5039732;28;20048;-75
2023/07/05 00:22:27;;;;;;;2.90;2.20;;;;;;;;;;5032985;28;20037;-74
2023/07/05 00:24:54;;;;;;;3.47;2.28;;;;;;;;;;5033935;28;20021;-74
2023/07/05 00:27:20;;;;;;;3.63;2.60;;;;;;;;;;5049737;28;20500;-73
2023/07/05 00:29:47;;;;;;;4.22;2.40;;;;;;;;;;5027935;28;20176;-75
2023/07/05 00:32:13;;;;;;;4.55;2.50;;;;;;;;;;5034088;28;20030;-74
2023/07/05 00:34:39;;;;;;;2.92;2.58;;;;;;;;;;5024587;28;20044;-75
2023/07/05 00:37:05;;;;;;;2.70;2.40;;;;;;;;;;5026762;28;20036;-75
2023/07/05 00:39:31;;;;;;;4.28;2.38;;;;;;;;;;5034775;28;20030;-74
2023/07/05 00:41:57;;;;;;;3.90;2.72;;;;;;;;;;5026502;28;20029;-75
2023/07/05 00:44:23;;;;;;;4.05;2.30;;;;;;;;;;5023272;28;20030;-74
2023/07/05 00:46:55;;;;;;;5.07;2.97;;;;;;;;;;5023054;28;20087;-74
2023/07/05 00:49:22;;;;;;;4.20;2.40;;;;;;;;;;5027335;28;20060;-75
2023/07/05 00:51:48;;;;;;;8.75;2.63;;;;;;;;;;5025572;28;20558;-75
2023/07/05 00:54:17;;;;;;;5.40;2.60;;;;;;;;;;5030882;28;20056;-74
2023/07/05 00:56:46;;;;;;;4.72;2.60;;;;;;;;;;5028837;28;20029;-74
2023/07/05 00:59:13;;;;;;;5.38;2.63;;;;;;;;;;5018125;28;20033;-75
2023/07/05 01:01:39;;;;;;;3.60;2.55;;;;;;;;;;5031606;28;20021;-74
2023/07/05 01:04:06;;;;;;;3.88;2.78;;;;;;;;;;5038699;28;20273;-74
2023/07/05 01:06:33;;;;;;;5.25;2.60;;;;;;;;;;5026435;28;20093;-75
2023/07/05 01:08:59;;;;;;;2.78;2.28;;;;;;;;;;5034887;28;20064;-74
2023/07/05 01:11:29;;;;;;;4.32;2.83;;;;;;;;;;5030818;28;20030;-74
2023/07/05 01:13:58;;;;;;;5.75;2.60;;;;;;;;;;5029826;28;20028;-75
2023/07/05 01:16:48;;;;;;;2.85;2.50;;;;;;;;;;5023931;28;20128;-74
2023/07/05 01:19:24;;;;;;;4.53;2.60;;;;;;;;;;5020162;28;20045;-74
2023/07/05 01:21:55;;;;;;;3.40;2.30;;;;;;;;;;5032132;28;20041;-74
2023/07/05 01:24:40;;;;;;;4.65;2.80;;;;;;;;;;5030260;28;20100;-74
2023/07/05 01:27:06;;;;;;;4.78;2.72;;;;;;;;;;5027310;28;20022;-75
2023/07/05 01:29:41;;;;;;;5.00;2.70;;;;;;;;;;5035344;28;20518;-75
2023/07/05 01:32:11;;;;;;;3.88;2.50;;;;;;;;;;5033687;28;20068;-75
2023/07/05 01:34:56;;;;;;;3.60;2.70;;;;;;;;;;5027681;28;20037;-75
2023/07/05 01:37:34;;;;;;;3.22;2.92;;;;;;;;;;5021034;28;20037;-75
2023/07/05 01:40:00;;;;;;;4.93;2.90;;;;;;;;;;5034743;28;20029;-74
2023/07/05 01:42:29;;;;;;;5.93;2.80;;;;;;;;;;5025296;28;20041;-74
2023/07/05 01:44:56;;;;;;;6.80;3.13;;;;;;;;;;5028967;28;20539;-74
2023/07/05 01:47:24;;;;;;;3.97;2.80;;;;;;;;;;5031182;28;21303;-74
2023/07/05 01:50:04;;;;;;;4.22;2.70;;;;;;;;;;5030218;28;20435;-74
2023/07/05 01:52:40;;;;;;;3.72;2.58;;;;;;;;;;5025061;28;20033;-75
2023/07/05 01:55:14;;;;;;;4.75;2.72;;;;;;;;;;5027987;28;20073;-75
2023/07/05 01:57:44;;;;;;;5.95;2.90;;;;;;;;;;5019481;28;20040;-75
2023/07/05 02:00:12;;;;;;;4.90;2.97;;;;;;;;;;5029615;28;20029;-74
2023/07/05 02:02:55;;;;;;;3.88;3.10;;;;;;;;;;5027476;28;20033;-74
2023/07/05 02:05:22;;;;;;;4.10;3.35;;;;;;;;;;5020834;28;20040;-74
2023/07/05 02:07:49;;;;;;;5.95;3.08;;;;;;;;;;5025203;28;20558;-73
2023/07/05 02:10:15;;;;;;;4.22;2.67;;;;;;;;;;5021261;28;20054;-74
2023/07/05 02:12:43;;;;;;;8.30;3.40;;;;;;;;;;5018863;28;20314;-75
2023/07/05 02:15:10;;;;;;;3.58;3.28;;;;;;;;;;5026023;28;20026;-74
2023/07/05 02:17:36;;;;;;;7.07;3.22;;;;;;;;;;5030500;28;20045;-76
2023/07/05 02:20:03;;;;;;;5.22;3.13;;;;;;;;;;5028650;28;20021;-74
2023/07/05 02:22:29;;;;;;;4.35;2.72;;;;;;;;;;5030442;28;20036;-74
2023/07/05 02:24:55;;;;;;;3.90;2.67;;;;;;;;;;5027347;28;20029;-75
2023/07/05 02:27:21;;;;;;;4.10;3.22;;;;;;;;;;5025661;28;20048;-75
2023/07/05 02:29:48;;;;;;;3.65;2.90;;;;;;;;;;5022700;28;20420;-74
2023/07/05 02:32:14;;;;;;;5.15;2.70;;;;;;;;;;5026559;28;20083;-74
2023/07/05 02:34:41;;;;;;;5.85;2.70;;;;;;;;;;5020617;28;20495;-74
2023/07/05 02:37:08;;;;;;;5.63;3.03;;;;;;;;;;5027262;28;20076;-75
2023/07/05 02:39:34;;;;;;;7.28;2.80;;;;;;;;;;5030815;28;20390;-75
2023/07/05 02:42:00;;;;;;;5.47;2.80;;;;;;;;;;5032786;28;20030;-73
2023/07/05 02:44:26;;;;;;;4.45;3.42;;;;;;;;;;5033334;28;20072;-74
2023/07/05 02:46:52;;;;;;;3.83;2.60;;;;;;;;;;5024549;28;20053;-74
2023/07/05 02:49:18;;;;;;;5.95;2.63;;;;;;;;;;5028101;28;20060;-74
2023/07/05 02:51:44;;;;;;;4.10;2.63;;;;;;;;;;5028531;28;20044;-74
2023/07/05 02:54:10;;;;;;;5.53;2.97;;;;;;;;;;5022588;28;20047;-75
2023/07/05 02:56:37;;;;;;;3.15;2.58;;;;;;;;;;5026724;28;20380;-74
2023/07/05 02:59:03;;;;;;;5.47;2.92;;;;;;;;;;5030354;28;20029;-74
2023/07/05 03:01:29;;;;;;;3.55;2.85;;;;;;;;;;5035408;28;20407;-74
2023/07/05 03:03:55;;;;;;;4.40;2.45;;;;;;;;;;5024503;28;20055;-75
2023/07/05 03:06:21;;;;;;;4.95;3.20;;;;;;;;;;5025511;28;20052;-75
2023/07/05 03:08:47;;;;;;;3.45;2.60;;;;;;;;;;5028215;28;20380;-74
2023/07/05 03:11:13;;;;;;;4.95;2.70;;;;;;;;;;5034556;28;20369;-75
2023/07/05 03:13:39;;;;;;;3.05;2.38;;;;;;;;;;5026899;28;20111;-74
2023/07/05 03:16:06;;;;;;;6.45;2.80;;;;;;;;;;5025080;28;20064;-75
2023/07/05 03:18:32;;;;;;;4.95;2.97;;;;;;;;;;5027872;28;20030;-75
2023/07/05 03:20:58;;;;;;;3.63;2.45;;;;;;;;;;5029271;28;20025;-75
2023/07/05 03:23:24;;;;;;;3.63;2.70;;;;;;;;;;5031550;28;20029;-75
2023/07/05 03:25:54;;;;;;;3.28;2.70;;;;;;;;;;5043290;28;20068;-75
2023/07/05 03:28:20;;;;;;;4.13;2.78;;;;;;;;;;5040899;28;20057;-75
2023/07/05 03:30:52;;;;;;;4.47;2.53;;;;;;;;;;5051613;28;20035;-75
2023/07/05 03:33:18;;;;;;;2.80;2.45;;;;;;;;;;5035623;28;20060;-74
2023/07/05 03:35:52;;;;;;;4.22;3.42;;;;;;;;;;5033055;28;20424;-74
2023/07/05 03:38:19;;;;;;;3.65;2.75;;;;;;;;;;5032363;28;20064;-75
2023/07/05 03:40:45;;;;;;;5.57;3.03;;;;;;;;;;5027877;28;20133;-74
2023/07/05 03:43:11;;;;;;;4.75;2.60;;;;;;;;;;5032869;28;20024;-75
2023/07/05 03:45:37;;;;;;;3.78;2.55;;;;;;;;;;5029769;28;20426;-74
2023/07/05 03:48:03;;;;;;;4.63;2.67;;;;;;;;;;5031122;28;20029;-74
2023/07/05 03:50:29;;;;;;;4.93;2.72;;;;;;;;;;5031457;28;20052;-75
2023/07/05 03:52:55;;;;;;;4.93;2.92;;;;;;;;;;5036336;28;20048;-74
2023/07/05 03:55:21;;;;;;;4.47;2.33;;;;;;;;;;5041258;28;20048;-75
2023/07/05 03:57:47;;;;;;;2.88;2.47;;;;;;;;;;5021625;28;20100;-74
2023/07/05 04:00:14;;;;;;;4.63;2.80;;;;;;;;;;5031118;28;20257;-74
2023/07/05 04:02:40;;;;;;;4.25;2.78;;;;;;;;;;5022919;28;20025;-75
2023/07/05 04:05:06;;;;;;;15.23;3.15;;;;;;;;;;5035267;28;20090;-75
2023/07/05 04:07:32;;;;;;;3.92;2.80;;;;;;;;;;5024071;28;20021;-73
2023/07/05 04:09:59;;;;;;;4.45;2.78;;;;;;;;;;5027220;28;20025;-74
2023/07/05 04:12:25;;;;;;;5.82;3.33;;;;;;;;;;5023511;28;20038;-74
2023/07/05 04:14:51;;;;;;;7.45;2.70;;;;;;;;;;5028579;28;20064;-74
2023/07/05 04:17:17;;;;;;;5.70;2.67;;;;;;;;;;5028364;28;20467;-74
2023/07/05 04:19:43;;;;;;;4.15;2.83;;;;;;;;;;5025686;28;20056;-75
2023/07/05 04:22:09;;;;;;;5.45;2.63;;;;;;;;;;5027256;28;20064;-75
2023/07/05 04:24:36;;;;;;;4.10;2.70;;;;;;;;;;5028135;28;20445;-73
2023/07/05 04:27:02;;;;;;;5.75;2.70;;;;;;;;;;5025911;28;20120;-74
2023/07/05 04:29:29;;;;;;;4.00;2.30;;;;;;;;;;5032351;28;20028;-74
2023/07/05 04:31:55;;;;;;;2.92;2.40;;;;;;;;;;5031197;28;20021;-74
2023/07/05 04:34:21;;;;;;;4.65;2.88;;;;;;;;;;5034525;28;20032;-74
2023/07/05 04:36:47;;;;;;;3.95;2.50;;;;;;;;;;5031118;28;20083;-75
2023/07/05 04:39:13;;;;;;;2.47;2.28;;;;;;;;;;5027264;28;20108;-74
2023/07/05 04:41:39;;;;;;;3.25;2.40;;;;;;;;;;5033652;28;20034;-74
2023/07/05 04:44:07;;;;;;;4.43;2.30;;;;;;;;;;5046983;28;20029;-75
2023/07/05 04:46:33;;;;;;;3.65;2.55;;;;;;;;;;5031121;28;20041;-74
2023/07/05 04:48:59;;;;;;;4.45;2.88;;;;;;;;;;5022676;28;20128;-74
2023/07/05 04:51:25;;;;;;;5.07;2.80;;;;;;;;;;5029209;28;20108;-76
2023/07/05 04:53:51;;;;;;;8.65;2.95;;;;;;;;;;5031424;28;20050;-75
2023/07/05 04:56:18;;;;;;;3.15;2.83;;;;;;;;;;5030300;28;20076;-75
2023/07/05 04:58:44;;;;;;;3.58;2.70;;;;;;;;;;5035852;28;20079;-74
2023/07/05 05:01:13;;;;;;;3.72;2.53;;;;;;;;;;5027285;28;20120;-75
2023/07/05 05:03:40;;;;;;;3.95;2.40;;;;;;;;;;5022691;28;20042;-75
2023/07/05 05:06:07;;;;;;;4.13;3.72;;;;;;;;;;5032063;28;20031;-75
2023/07/05 05:08:33;;;;;;;2.58;2.38;;;;;;;;;;5035834;28;20092;-74
2023/07/05 05:11:00;;;;;;;3.17;2.75;;;;;;;;;;5032499;28;20026;-75
2023/07/05 05:13:27;;;;;;;4.18;2.50;;;;;;;;;;5022763;28;20044;-75
2023/07/05 05:15:54;;;;;;;3.45;2.40;;;;;;;;;;5024806;28;20115;-74
2023/07/05 05:18:23;;;;;;;5.82;2.55;;;;;;;;;;5028061;28;20053;-75
2023/07/05 05:20:49;;;;;;;3.40;2.55;;;;;;;;;;5031472;28;20032;-74
2023/07/05 05:23:15;;;;;;;2.78;2.47;;;;;;;;;;5034381;28;20051;-75
2023/07/05 05:25:42;;;;;;;6.45;2.75;;;;;;;;;;5025866;28;20061;-75
2023/07/05 05:28:08;;;;;;;7.65;2.90;;;;;;;;;;5028536;28;20024;-74
2023/07/05 05:30:35;;;;;;;4.43;2.50;;;;;;;;;;5030350;28;20103;-75
2023/07/05 05:33:03;;;;;;;3.00;2.45;;;;;;;;;;5025437;28;20036;-75
2023/07/05 05:35:31;;;;;;;4.57;2.70;;;;;;;;;;5025978;28;20036;-74
2023/07/05 05:37:57;;;;;;;3.33;2.58;;;;;;;;;;5031997;28;20021;-74
2023/07/05 05:40:23;;;;;;;3.40;2.63;;;;;;;;;;5032172;28;20460;-74
2023/07/05 05:42:49;;;;;;;4.90;2.70;;;;;;;;;;5029651;28;20036;-75
2023/07/05 05:45:16;;;;;;;4.05;2.88;;;;;;;;;;5034987;28;20502;-75
2023/07/05 05:47:43;;;;;;;2.92;2.50;;;;;;;;;;5032110;28;20021;-75
2023/07/05 05:50:09;;;;;;;5.45;2.50;;;;;;;;;;5029863;28;20509;-75
2023/07/05 05:52:35;;;;;;;3.78;2.85;;;;;;;;;;5027457;28;20030;-75
2023/07/05 05:55:03;;;;;;;4.50;2.80;;;;;;;;;;5014493;28;20499;-74
2023/07/05 05:57:29;;;;;;;2.95;2.40;;;;;;;;;;5029614;28;20740;-74
2023/07/05 05:59:55;;;;;;;4.65;2.72;;;;;;;;;;5028320;28;20033;-74
2023/07/05 06:02:21;;;;;;;4.65;2.53;;;;;;;;;;5030331;28;20025;-75
2023/07/05 06:04:47;;;;;;;4.22;2.58;;;;;;;;;;5027919;28;20054;-75
2023/07/05 06:07:13;;;;;;;4.25;2.33;;;;;;;;;;5028973;28;20108;-75
2023/07/05 06:09:40;;;;;;;5.20;2.17;;;;;;;;;;5030382;28;20069;-75
2023/07/05 06:12:06;;;;;;;4.97;2.60;;;;;;;;;;5028313;28;20042;-74
2023/07/05 06:14:32;;;;;;;4.05;2.45;;;;;;;;;;5031379;28;20056;-75
2023/07/05 06:16:58;;;;;;;3.80;2.50;;;;;;;;;;5025967;28;20115;-75
2023/07/05 06:19:25;;;;;;;3.88;2.67;;;;;;;;;;5028221;28;20036;-74
2023/07/05 06:21:51;;;;;;;4.47;2.70;;;;;;;;;;5033125;28;20051;-74
2023/07/05 06:24:17;;;;;;;4.43;2.40;;;;;;;;;;5033677;28;20017;-75
2023/07/05 06:26:43;;;;;;;2.72;2.53;;;;;;;;;;5043357;28;20025;-75
2023/07/05 06:29:09;;;;;;;3.75;2.67;;;;;;;;;;5027266;28;20021;-74
2023/07/05 06:31:35;;;;;;;5.15;2.33;;;;;;;;;;5030452;28;20089;-75
2023/07/05 06:34:01;;;;;;;6.07;2.47;;;;;;;;;;5035117;28;20064;-75
2023/07/05 06:36:27;;;;;;;3.28;2.47;;;;;;;;;;5041962;28;20044;-75
2023/07/05 06:38:53;;;;;;;3.63;2.38;;;;;;;;;;5039030;28;20049;-75
2023/07/05 06:41:20;;;;;;;3.80;2.40;;;;;;;;;;5027256;28;20736;-73
2023/07/05 06:43:46;;;;;;;2.97;2.40;;;;;;;;;;5030462;28;20522;-74
2023/07/05 06:46:12;;;;;;;4.00;2.30;;;;;;;;;;5029189;28;20033;-74
2023/07/05 06:48:38;;;;;;;3.53;2.08;;;;;;;;;;5030348;28;20029;-73
2023/07/05 06:51:04;;;;;;;3.28;2.13;;;;;;;;;;5026680;28;20037;-74
2023/07/05 06:53:31;;;;;;;4.97;2.40;;;;;;;;;;5031754;28;20029;-74
2023/07/05 06:55:57;;;;;;;5.63;2.63;;;;;;;;;;5028278;28;20061;-74
2023/07/05 06:58:23;;;;;;;3.45;2.40;;;;;;;;;;5031056;28;20027;-74
2023/07/05 07:00:50;;;;;;;3.10;2.30;;;;;;;;;;5021829;28;20033;-74
2023/07/05 07:03:17;;;;;;;3.33;2.30;;;;;;;;;;5025330;28;20068;-73
2023/07/05 07:05:54;;;;;;;3.83;2.42;;;;;;;;;;5026225;28;20499;-74
2023/07/05 07:08:20;;;;;;;6.38;2.25;;;;;;;;;;5026882;28;20034;-74
2023/07/05 07:10:47;;;;;;;2.75;2.35;;;;;;;;;;5027986;28;20032;-73
2023/07/05 07:13:14;;;;;;;3.50;2.28;;;;;;;;;;5027461;28;20373;-74
2023/07/05 07:15:41;;;;;;;7.20;2.25;;;;;;;;;;5023285;28;20052;-73
2023/07/05 07:18:07;;;;;;;3.63;2.20;;;;;;;;;;5032164;28;20034;-73
2023/07/05 07:20:33;;;;;;;2.80;2.17;;;;;;;;;;5029564;28;20060;-74
2023/07/05 07:22:59;;;;;;;4.40;2.30;;;;;;;;;;5029010;28;20033;-73
2023/07/05 07:25:26;;;;;;;4.22;2.33;;;;;;;;;;5024929;28;20044;-73
2023/07/05 07:27:52;;;;;;;3.50;2.08;;;;;;;;;;5032952;28;20073;-73
2023/07/05 07:30:18;;;;;;;2.88;2.38;;;;;;;;;;5026754;28;20029;-73
2023/07/05 07:32:45;;;;;;;8.23;3.13;;;;;;;;;;5018910;28;20318;-74
2023/07/05 07:35:12;;;;;;;5.47;2.30;;;;;;;;;;5028553;28;20116;-74
2023/07/05 07:37:38;;;;;;;2.80;2.05;;;;;;;;;;5027155;28;20029;-73
2023/07/05 07:40:06;;;;;;;6.60;2.70;;;;;;;;;;5031794;28;20033;-73
2023/07/05 07:42:32;;;;;;;4.80;2.28;;;;;;;;;;5030490;28;20025;-72
2023/07/05 07:44:58;;;;;;;4.25;2.42;;;;;;;;;;5011226;28;20387;-75
2023/07/05 07:47:25;;;;;;;5.30;2.00;;;;;;;;;;5024257;28;20029;-74
2023/07/05 07:49:51;;;;;;;2.88;2.05;;;;;;;;;;5019187;28;20021;-74
2023/07/05 07:52:20;;;;;;;2.05;1.88;;;;;;;;;;5023410;28;20036;-74
2023/07/05 07:54:46;;;;;;;4.38;2.80;;;;;;;;;;5024885;28;20087;-74
2023/07/05 07:57:12;;;;;;;3.15;2.03;;;;;;;;;;5018646;28;20033;-74
2023/07/05 07:59:41;;;;;;;4.93;2.10;;;;;;;;;;5022802;28;20025;-74
2023/07/05 08:02:14;;;;;;;3.08;2.08;;;;;;;;;;5021552;28;20045;-74
2023/07/05 08:04:44;;;;;;;2.58;2.25;;;;;;;;;;5020350;28;20037;-73
2023/07/05 08:07:10;;;;;;;2.35;1.95;;;;;;;;;;5019251;28;20100;-73
2023/07/05 08:09:37;;;;;;;3.95;2.03;;;;;;;;;;5021978;28;20072;-75
2023/07/05 08:12:03;;;;;;;2.10;1.90;;;;;;;;;;5023899;28;20025;-74
2023/07/05 08:14:29;;;;;;;3.85;2.30;;;;;;;;;;5023023;28;20414;-74
2023/07/05 08:16:55;;;;;;;4.38;2.13;;;;;;;;;;5021736;28;20033;-74
2023/07/05 08:19:22;;;;;;;3.13;2.10;;;;;;;;;;5027526;28;20041;-73
2023/07/05 08:21:49;;;;;;;4.68;1.90;;;;;;;;;;5020742;28;20056;-75
2023/07/05 08:24:16;;;;;;;3.13;2.00;;;;;;;;;;5023265;28;20021;-74
2023/07/05 08:26:42;;;;;;;2.70;2.00;;;;;;;;;;5041139;28;20029;-74
2023/07/05 08:29:09;;;;;;;2.83;1.92;;;;;;;;;;5029848;28;20037;-74
2023/07/05 08:31:35;;;;;;;3.28;1.80;;;;;;;;;;5041708;28;20025;-73
2023/07/05 08:34:01;;;;;;;4.82;2.33;;;;;;;;;;5027545;28;20064;-74
2023/07/05 08:36:32;;;;;;;8.85;2.50;;;;;;;;;;5031742;28;20036;-74
2023/07/05 08:38:59;;;;;;;3.92;2.30;;;;;;;;;;5033294;28;20056;-75
2023/07/05 08:41:29;;;;;;;1.88;1.77;;;;;;;;;;5053320;28;20171;-75
2023/07/05 08:44:04;;;;;;;3.40;2.30;;;;;;;;;;5031381;28;20534;-74
2023/07/05 08:46:31;;;;;;;2.20;1.70;;;;;;;;;;5030781;28;20021;-76
2023/07/05 08:49:02;;;;;;;3.13;1.95;;;;;;;;;;5032312;28;20538;-76
2023/07/05 08:51:29;;;;;;;4.80;2.17;;;;;;;;;;5024165;28;20030;-76
2023/07/05 08:53:57;;;;;;;4.80;1.80;;;;;;;;;;5021915;28;20551;-76
2023/07/05 08:56:32;;;;;;;2.15;1.90;;;;;;;;;;5024160;28;20723;-76
2023/07/05 08:59:06;;;;;;;1.83;1.73;;;;;;;;;;5024927;28;20072;-75
2023/07/05 09:01:37;;;;;;;2.17;1.65;;;;;;;;;;5025806;28;20026;-75
2023/07/05 09:04:03;;;;;;;3.85;1.80;;;;;;;;;;5029606;28;20053;-76
2023/07/05 09:06:49;;;;;;;3.42;1.65;;;;;;;;;;5028263;28;20034;-75
2023/07/05 09:09:27;;;;;;;2.22;2.03;;;;;;;;;;5030748;28;20487;-75
2023/07/05 09:12:06;;;;;;;2.03;1.63;;;;;;;;;;5029492;28;20033;-77
2023/07/05 09:14:41;;;;;;;2.90;1.60;;;;;;;;;;5046519;28;20030;-77
2023/07/05 09:17:18;;;;;;;1.73;1.60;;;;;;;;;;5043915;28;20057;-76
2023/07/05 09:19:48;;;;;;;2.20;1.50;;;;;;;;;;5030335;28;20700;-76
2023/07/05 09:22:23;;;;;;;3.38;1.80;;;;;;;;;;5037692;28;20037;-75
2023/07/05 09:24:49;;;;;;;3.17;1.98;;;;;;;;;;5036373;28;20025;-75
2023/07/05 09:27:22;;;;;;;3.58;1.90;;;;;;;;;;5032996;28;20037;-76
2023/07/05 09:30:08;;;;;;;2.40;2.20;;;;;;;;;;5032773;28;20474;-75
2023/07/05 09:32:39;;;;;;;3.80;1.83;;;;;;;;;;5026052;28;20025;-76
2023/07/05 09:35:12;;;;;;;3.65;1.90;;;;;;;;;;5024126;28;20029;-76
2023/07/05 09:37:40;;;;;;;3.45;1.80;;;;;;;;;;5027680;28;20560;-75
2023/07/05 09:40:12;;;;;;;1.63;1.52;;;;;;;;;;5033992;28;20051;-74
2023/07/05 09:42:57;;;;;;;2.30;1.73;;;;;;;;;;5041859;28;20093;-75
2023/07/05 09:45:24;;;;;;;3.97;2.08;;;;;;;;;;5047360;28;20574;-75
2023/07/05 09:47:53;;;;;;;2.78;1.83;;;;;;;;;;5048697;28;20044;-73
2023/07/05 09:50:21;;;;;;;3.42;1.85;;;;;;;;;;5045935;28;20041;-74
2023/07/05 09:53:07;;;;;;;2.65;1.92;;;;;;;;;;5048195;28;20025;-74
2023/07/05 09:55:33;;;;;;;3.72;1.95;;;;;;;;;;5007178;28;20549;-75
2023/07/05 09:57:59;;;;;;;3.45;1.80;;;;;;;;;;5040031;28;20032;-74
2023/07/05 10:00:26;;;;;;;2.30;1.80;;;;;;;;;;5033264;28;20056;-75
2023/07/05 10:02:54;;;;;;;2.00;1.48;;;;;;;;;;5028815;28;20502;-76
2023/07/05 10:05:28;;;;;;;2.35;1.92;;;;;;;;;;5029980;28;20033;-76
2023/07/05 10:07:59;;;;;;;2.20;1.50;;;;;;;;;;5026942;28;20025;-76
2023/07/05 10:10:33;;;;;;;2.70;1.90;;;;;;;;;;5025401;28;20064;-76
2023/07/05 10:13:12;;;;;;;1.70;1.60;;;;;;;;;;5029037;28;20386;-76
2023/07/05 10:16:02;;;;;;;4.65;1.70;;;;;;;;;;5030297;28;20029;-75
2023/07/05 10:18:29;;;;;;;2.78;1.60;;;;;;;;;;5027636;28;20041;-75
2023/07/05 10:21:01;;;;;;;2.97;1.83;;;;;;;;;;5028355;28;20033;-76
2023/07/05 10:23:30;;;;;;;1.60;1.50;;;;;;;;;;5028622;28;20021;-76
2023/07/05 10:26:00;;;;;;;1.60;1.50;;;;;;;;;;5027616;28;20121;-75
2023/07/05 10:28:29;;;;;;;3.75;1.83;;;;;;;;;;5022317;28;20026;-76
2023/07/05 10:31:04;;;;;;;4.45;2.67;;;;;;;;;;5031080;28;20543;-76
2023/07/05 10:33:37;;;;;;;2.80;1.92;;;;;;;;;;5028100;28;20037;-76
2023/07/05 10:36:13;;;;;;;1.60;1.50;;;;;;;;;;5030251;28;20039;-76
2023/07/05 10:38:40;;;;;;;2.42;2.22;;;;;;;;;;5025444;28;20079;-74
2023/07/05 10:41:15;;;;;;;1.90;1.70;;;;;;;;;;5027225;28;20120;-73
2023/07/05 10:43:42;;;;;;;4.65;2.22;;;;;;;;;;5021426;28;20452;-73
2023/07/05 10:46:10;;;;;;;3.13;1.90;;;;;;;;;;5018367;28;20030;-75
2023/07/05 10:48:40;;;;;;;4.57;2.65;;;;;;;;;;5025594;28;20164;-76
2023/07/05 10:51:13;;;;;;;1.98;1.80;;;;;;;;;;5027222;28;20022;-76
2023/07/05 10:53:40;;;;;;;2.25;1.58;;;;;;;;;;5027229;28;20029;-76
2023/07/05 10:56:14;;;;;;;1.83;1.73;;;;;;;;;;5021221;28;20026;-76
2023/07/05 10:58:43;;;;;;;1.70;1.60;;;;;;;;;;5024168;28;20037;-76
2023/07/05 11:01:23;;;;;;;2.58;1.77;;;;;;;;;;5028625;28;20033;-74
2023/07/05 11:03:55;;;;;;;1.50;1.40;;;;;;;;;;5029361;28;20152;-75
2023/07/05 11:06:22;;;;;;;1.60;1.50;;;;;;;;;;5021161;28;20040;-74
2023/07/05 11:08:48;;;;;;;2.00;1.70;;;;;;;;;;5027621;28;20092;-76
2023/07/05 11:11:17;;;;;;;1.60;1.50;;;;;;;;;;5033911;28;21199;-76
2023/07/05 11:13:44;;;;;;;3.50;1.80;;;;;;;;;;5028782;28;20029;-75
2023/07/05 11:16:17;;;;;;;1.70;1.60;;;;;;;;;;5023365;28;20033;-76
2023/07/05 11:18:43;;;;;;;3.80;1.70;;;;;;;;;;5023003;28;20056;-75
2023/07/05 11:21:29;;;;;;;1.80;1.65;;;;;;;;;;5022028;28;20040;-75
2023/07/05 11:23:55;;;;;;;1.50;1.40;;;;;;;;;;5033879;28;20032;-75
2023/07/05 11:26:40;;;;;;;1.52;1.40;;;;;;;;;;5023225;28;20502;-75
2023/07/05 11:29:25;;;;;;;4.50;1.63;;;;;;;;;;5024985;28;20044;-75
2023/07/05 11:31:55;;;;;;;2.38;1.50;;;;;;;;;;5010760;28;20104;-75
2023/07/05 11:34:21;;;;;;;1.63;1.40;;;;;;;;;;5019218;28;20040;-75
2023/07/05 11:36:48;;;;;;;1.60;1.50;;;;;;;;;;5019624;28;20030;-74
2023/07/05 11:39:33;;;;;;;3.10;1.70;;;;;;;;;;5022504;28;20035;-74
2023/07/05 11:42:19;;;;;;;1.80;1.63;;;;;;;;;;5022051;28;20048;-75
2023/07/05 11:44:46;;;;;;;2.22;1.40;;;;;;;;;;5017528;28;20583;-75
2023/07/05 11:47:32;;;;;;;2.47;1.60;;;;;;;;;;5024865;28;20029;-75
2023/07/05 11:50:07;;;;;;;1.50;1.40;;;;;;;;;;5021851;28;20045;-75
2023/07/05 11:52:37;;;;;;;1.60;1.50;;;;;;;;;;5027535;28;20114;-75
2023/07/05 11:55:12;;;;;;;2.60;1.50;;;;;;;;;;5022404;28;20080;-75
2023/07/05 11:57:38;;;;;;;;;;;;;;;;;;5021875;28;20032;-75
2023/07/05 12:00:14;;;;;;;1.50;1.40;;;;;;;;;;5021667;28;19916;-74
2023/07/05 12:02:40;;;;;;;1.50;1.50;;;;;;;;;;5021651;28;20507;-74
2023/07/05 12:05:09;;;;;;;1.50;1.40;;;;;;;;;;5015072;28;20091;-74
2023/07/05 12:07:35;;;;;;;3.13;1.55;;;;;;;;;;5022103;28;20022;-75
2023/07/05 12:10:02;;;;;;;1.60;1.50;;;;;;;;;;5023275;28;20029;-76
2023/07/05 12:12:28;;;;;;;1.60;1.50;;;;;;;;;;5003774;28;20422;-75
2023/07/05 12:14:54;;;;;;;1.65;1.55;;;;;;;;;;5026297;28;21006;-75
2023/07/05 12:17:24;;;;;;;1.50;1.40;;;;;;;;;;5026757;28;20033;-76
2023/07/05 12:19:50;;;;;;;1.60;1.50;;;;;;;;;;5020735;28;20536;-74
2023/07/05 12:22:25;;;;;;;2.78;1.50;;;;;;;;;;5028088;28;20064;-75
2023/07/05 12:24:51;;;;;;;;;;;;;;;;;;5030033;28;20032;-75
2023/07/05 12:27:21;;;;;;;1.58;1.48;;;;;;;;;;5032148;28;20020;-76
2023/07/05 12:29:55;;;;;;;2.85;1.70;;;;;;;;;;5026469;28;20034;-76
2023/07/05 12:32:24;;;;;;;1.42;1.40;;;;;;;;;;5032541;28;20184;-77
2023/07/05 12:35:09;;;;;;;4.28;1.50;;;;;;;;;;5034209;28;20288;-76
2023/07/05 12:37:35;;;;;;;1.75;1.50;;;;;;;;;;5030880;28;20044;-76
2023/07/05 12:40:17;;;;;;;1.20;1.20;;;;;;;;;;5026073;28;20049;-76
2023/07/05 12:42:48;;;;;;;1.73;1.63;;;;;;;;;;5024631;28;20034;-76
2023/07/05 12:45:16;;;;;;;1.30;1.30;;;;;;;;;;5023284;28;20021;-75
2023/07/05 12:47:42;;;;;;;1.30;1.30;;;;;;;;;;5034730;28;20021;-76
2023/07/05 12:50:09;;;;;;;3.05;1.85;;;;;;;;;;5041612;28;20048;-77
2023/07/05 12:52:35;;;;;;;1.67;1.50;;;;;;;;;;5039468;28;20067;-76
2023/07/05 12:55:01;;;;;;;2.53;1.60;;;;;;;;;;5033274;28;20044;-75
2023/07/05 12:57:32;;;;;;;1.60;1.50;;;;;;;;;;5028718;28;20029;-76
2023/07/05 12:59:58;;;;;;;1.92;1.58;;;;;;;;;;5024967;28;20910;-76
2023/07/05 13:02:29;;;;;;;1.70;1.60;;;;;;;;;;5030727;28;20063;-76
2023/07/05 13:04:59;;;;;;;1.83;1.50;;;;;;;;;;5031296;28;20045;-76
2023/07/05 13:07:26;;;;;;;1.60;1.50;;;;;;;;;;5027649;28;20025;-75
2023/07/05 13:09:53;;;;;;;2.28;1.70;;;;;;;;;;5025191;28;20026;-77
2023/07/05 13:12:22;;;;;;;6.28;1.65;;;;;;;;;;5021920;28;20099;-75
2023/07/05 13:14:57;;;;;;;2.10;1.50;;;;;;;;;;5029858;28;20033;-76
2023/07/05 13:17:25;;;;;;;3.58;1.70;;;;;;;;;;5021209;28;20033;-77
2023/07/05 13:20:11;;;;;;;4.70;1.73;;;;;;;;;;5024880;28;20103;-75
2023/07/05 13:22:47;;;;;;;1.60;1.50;;;;;;;;;;5025934;28;20091;-75
2023/07/05 13:25:25;;;;;;;5.38;1.70;;;;;;;;;;5021676;28;20061;-74
2023/07/05 13:27:53;;;;;;;1.38;1.33;;;;;;;;;;5025125;28;20060;-74
2023/07/05 13:30:21;;;;;;;2.22;1.48;;;;;;;;;;5025481;28;20038;-75
2023/07/05 13:32:52;;;;;;;2.30;1.92;;;;;;;;;;5027733;28;20033;-75
2023/07/05 13:35:18;;;;;;;3.65;2.50;;;;;;;;;;5029347;28;20033;-77
2023/07/05 13:37:44;;;;;;;4.18;3.08;;;;;;;;;;5023732;28;20033;-75
2023/07/05 13:40:21;;;;;;;4.85;2.22;;;;;;;;;;5023270;28;20044;-76
2023/07/05 13:42:48;;;;;;;2.30;1.33;;;;;;;;;;5027432;28;20041;-75
2023/07/05 13:45:16;;;;;;;1.70;1.60;;;;;;;;;;5032662;28;20033;-75
2023/07/05 13:47:42;;;;;;;5.20;1.85;;;;;;;;;;5021179;28;20025;-75
2023/07/05 13:50:12;;;;;;;2.63;1.67;;;;;;;;;;5025998;28;20030;-74
2023/07/05 13:52:39;;;;;;;2.35;1.65;;;;;;;;;;5023105;28;20037;-76
2023/07/05 13:55:06;;;;;;;2.20;1.92;;;;;;;;;;5023227;28;20030;-76
2023/07/05 13:57:33;;;;;;;1.83;1.38;;;;;;;;;;5024797;28;20033;-75
2023/07/05 14:00:00;;;;;;;1.77;1.60;;;;;;;;;;5021969;28;20041;-76
2023/07/05 14:02:26;;;;;;;1.85;1.63;;;;;;;;;;5027173;28;20030;-76
2023/07/05 14:04:53;;;;;;;1.40;1.30;;;;;;;;;;5027680;28;20144;-77
2023/07/05 14:07:19;;;;;;;1.52;1.30;;;;;;;;;;5024864;28;20030;-74
2023/07/05 14:09:46;;;;;;;1.67;1.35;;;;;;;;;;5025194;28;20036;-74
2023/07/05 14:12:16;;;;;;;3.33;1.50;;;;;;;;;;5031542;28;20396;-78
2023/07/05 14:14:42;;;;;;;1.45;1.35;;;;;;;;;;5026448;28;20033;-75
2023/07/05 14:17:22;;;;;;;2.22;1.60;;;;;;;;;;5026026;28;20053;-75
2023/07/05 14:19:49;;;;;;;2.53;2.33;;;;;;;;;;5038130;28;20856;-76
2023/07/05 14:22:20;;;;;;;2.05;1.60;;;;;;;;;;5023011;28;20117;-75
2023/07/05 14:24:48;;;;;;;2.05;1.52;;;;;;;;;;5024303;28;20543;-75
2023/07/05 14:27:20;;;;;;;6.07;1.60;;;;;;;;;;5034821;28;20435;-76
2023/07/05 14:29:46;;;;;;;2.63;1.60;;;;;;;;;;5021228;28;20029;-76
2023/07/05 14:32:12;;;;;;;1.75;1.60;;;;;;;;;;5019788;28;20117;-75
2023/07/05 14:34:39;;;;;;;1.80;1.50;;;;;;;;;;5022512;28;20080;-76
2023/07/05 14:37:06;;;;;;;1.33;1.23;;;;;;;;;;5029926;28;20097;-75
2023/07/05 14:39:32;;;;;;;1.65;1.55;;;;;;;;;;5023113;28;20717;-76
2023/07/05 14:41:58;;;;;;;2.13;1.60;;;;;;;;;;5023923;28;20148;-76
2023/07/05 14:44:24;;;;;;;3.75;1.33;;;;;;;;;;5021612;28;20475;-76
2023/07/05 14:46:50;;;;;;;2.80;1.30;;;;;;;;;;5017181;28;20030;-75
2023/07/05 14:49:16;;;;;;;1.52;1.27;;;;;;;;;;5018198;28;20036;-75
2023/07/05 14:51:42;;;;;;;1.60;1.40;;;;;;;;;;5024947;28;20491;-75